sensor_id;sensor_type;location;lat;lon;timestamp;pressure;altitude;pressure_sealevel;temperature;humidity
75668;BME280;64266;48.798;44.756;2024-01-06T00:02:07;100684.91;;;2.62;93.05
75668;BME280;64266;48.798;44.756;2024-01-06T00:07:10;100672.84;;;2.45;93.27
75668;BME280;64266;48.798;44.756;2024-01-06T00:12:13;100684.28;;;2.44;93.56
75668;BME280;64266;48.798;44.756;2024-01-06T00:17:16;100648.72;;;2.03;91.92
75668;BME280;64266;48.798;44.756;2024-01-06T00:22:21;100682.34;;;2.22;93.01
75668;BME280;64266;48.798;44.756;2024-01-06T00:27:25;100675.19;;;2.24;93.97
75668;BME280;64266;48.798;44.756;2024-01-06T00:32:29;100685.16;;;2.37;94.53
75668;BME280;64266;48.798;44.756;2024-01-06T00:37:32;100699.38;;;2.26;92.45
75668;BME280;64266;48.798;44.756;2024-01-06T00:42:35;100653.97;;;2.03;94.14
75668;BME280;64266;48.798;44.756;2024-01-06T00:47:39;100692.31;;;2.35;93.27
75668;BME280;64266;48.798;44.756;2024-01-06T00:52:42;100683.34;;;2.13;92.10
75668;BME280;64266;48.798;44.756;2024-01-06T00:57:45;100663.25;;;1.97;93.45
75668;BME280;64266;48.798;44.756;2024-01-06T01:02:47;100680.41;;;2.08;92.83
75668;BME280;64266;48.798;44.756;2024-01-06T01:07:50;100721.63;;;2.30;93.55
75668;BME280;64266;48.798;44.756;2024-01-06T01:12:53;100665.88;;;1.89;92.42
75668;BME280;64266;48.798;44.756;2024-01-06T01:17:56;100736.00;;;2.26;93.57
75668;BME280;64266;48.798;44.756;2024-01-06T01:22:59;100732.72;;;2.24;92.78
75668;BME280;64266;48.798;44.756;2024-01-06T01:28:02;100738.28;;;2.29;93.60
75668;BME280;64266;48.798;44.756;2024-01-06T01:33:05;100754.78;;;2.13;90.58
75668;BME280;64266;48.798;44.756;2024-01-06T01:38:08;100706.72;;;1.74;91.02
75668;BME280;64266;48.798;44.756;2024-01-06T01:43:21;100775.72;;;2.05;91.03
75668;BME280;64266;48.798;44.756;2024-01-06T01:48:25;100798.63;;;2.28;90.83
75668;BME280;64266;48.798;44.756;2024-01-06T01:53:29;100800.41;;;2.43;92.30
75668;BME280;64266;48.798;44.756;2024-01-06T01:58:32;100810.41;;;2.48;90.38
75668;BME280;64266;48.798;44.756;2024-01-06T02:03:36;100805.31;;;2.46;90.32
75668;BME280;64266;48.798;44.756;2024-01-06T02:08:40;100793.41;;;2.52;89.01
75668;BME280;64266;48.798;44.756;2024-01-06T02:13:43;100796.19;;;2.58;89.62
75668;BME280;64266;48.798;44.756;2024-01-06T02:18:46;100801.72;;;2.71;89.54
75668;BME280;64266;48.798;44.756;2024-01-06T02:23:49;100768.03;;;2.52;89.63
75668;BME280;64266;48.798;44.756;2024-01-06T02:28:52;100815.47;;;2.82;89.42
75668;BME280;64266;48.798;44.756;2024-01-06T02:33:55;100835.75;;;2.88;89.47
75668;BME280;64266;48.798;44.756;2024-01-06T02:38:59;100839.00;;;2.98;90.87
75668;BME280;64266;48.798;44.756;2024-01-06T02:44:03;100853.09;;;2.97;88.90
75668;BME280;64266;48.798;44.756;2024-01-06T02:49:07;100864.06;;;2.92;87.62
75668;BME280;64266;48.798;44.756;2024-01-06T02:54:11;100876.63;;;3.05;89.46
75668;BME280;64266;48.798;44.756;2024-01-06T02:59:14;100874.38;;;2.94;88.73
75668;BME280;64266;48.798;44.756;2024-01-06T03:04:17;100911.69;;;2.96;88.28
75668;BME280;64266;48.798;44.756;2024-01-06T03:09:20;100886.81;;;2.76;85.85
75668;BME280;64266;48.798;44.756;2024-01-06T03:14:23;100891.91;;;2.85;87.56
75668;BME280;64266;48.798;44.756;2024-01-06T03:19:25;100893.84;;;2.91;87.77
75668;BME280;64266;48.798;44.756;2024-01-06T03:24:31;100927.56;;;3.18;86.79
75668;BME280;64266;48.798;44.756;2024-01-06T03:29:33;100897.59;;;3.13;88.68
75668;BME280;64266;48.798;44.756;2024-01-06T03:34:36;100939.66;;;3.44;87.21
75668;BME280;64266;48.798;44.756;2024-01-06T03:39:39;100941.13;;;3.46;88.23
75668;BME280;64266;48.798;44.756;2024-01-06T03:44:42;100936.38;;;3.42;85.44
75668;BME280;64266;48.798;44.756;2024-01-06T03:49:45;100927.38;;;3.44;87.75
75668;BME280;64266;48.798;44.756;2024-01-06T03:54:48;100965.97;;;3.66;85.96
75668;BME280;64266;48.798;44.756;2024-01-06T03:59:51;100978.09;;;3.75;85.43
75668;BME280;64266;48.798;44.756;2024-01-06T04:04:54;100992.50;;;3.88;84.70
75668;BME280;64266;48.798;44.756;2024-01-06T04:09:56;100998.88;;;3.85;83.46
75668;BME280;64266;48.798;44.756;2024-01-06T04:15:00;100996.25;;;3.85;83.00
75668;BME280;64266;48.798;44.756;2024-01-06T04:20:05;101024.75;;;4.04;83.60
75668;BME280;64266;48.798;44.756;2024-01-06T04:25:08;101018.59;;;3.81;81.12
75668;BME280;64266;48.798;44.756;2024-01-06T04:30:11;101021.66;;;3.93;82.90
75668;BME280;64266;48.798;44.756;2024-01-06T04:35:14;101033.13;;;4.00;83.81
75668;BME280;64266;48.798;44.756;2024-01-06T04:40:18;101056.88;;;4.14;82.32
75668;BME280;64266;48.798;44.756;2024-01-06T04:45:21;101054.41;;;4.13;82.59
75668;BME280;64266;48.798;44.756;2024-01-06T04:50:26;101064.28;;;4.03;81.14
75668;BME280;64266;48.798;44.756;2024-01-06T04:55:29;101059.06;;;3.87;80.17
75668;BME280;64266;48.798;44.756;2024-01-06T05:00:33;101021.06;;;3.42;80.35
75668;BME280;64266;48.798;44.756;2024-01-06T05:05:39;101095.63;;;3.80;81.84
75668;BME280;64266;48.798;44.756;2024-01-06T05:10:42;101140.22;;;3.96;79.91
75668;BME280;64266;48.798;44.756;2024-01-06T05:15:45;101146.94;;;3.91;79.37
75668;BME280;64266;48.798;44.756;2024-01-06T05:20:48;101133.81;;;3.66;78.30
75668;BME280;64266;48.798;44.756;2024-01-06T05:25:51;101173.16;;;3.74;78.94
75668;BME280;64266;48.798;44.756;2024-01-06T05:30:54;101149.03;;;3.47;77.87
75668;BME280;64266;48.798;44.756;2024-01-06T05:36:00;101148.22;;;3.38;79.24
75668;BME280;64266;48.798;44.756;2024-01-06T05:41:03;101177.84;;;3.31;74.96
75668;BME280;64266;48.798;44.756;2024-01-06T05:46:07;101129.53;;;2.83;76.64
75668;BME280;64266;48.798;44.756;2024-01-06T05:51:13;101177.59;;;3.08;77.66
75668;BME280;64266;48.798;44.756;2024-01-06T05:56:25;101214.31;;;3.16;78.05
75668;BME280;64266;48.798;44.756;2024-01-06T06:01:28;101216.72;;;3.01;77.80
75668;BME280;64266;48.798;44.756;2024-01-06T06:06:34;101227.31;;;2.92;75.50
75668;BME280;64266;48.798;44.756;2024-01-06T06:11:38;101257.41;;;2.88;76.94
75668;BME280;64266;48.798;44.756;2024-01-06T06:16:41;101271.97;;;2.90;76.77
75668;BME280;64266;48.798;44.756;2024-01-06T06:21:45;101238.50;;;2.76;76.94
75668;BME280;64266;48.798;44.756;2024-01-06T06:26:48;101297.44;;;3.06;76.40
75668;BME280;64266;48.798;44.756;2024-01-06T06:31:51;101286.72;;;2.91;76.59
75668;BME280;64266;48.798;44.756;2024-01-06T06:36:54;101240.03;;;2.35;75.95
75668;BME280;64266;48.798;44.756;2024-01-06T06:41:58;101300.00;;;2.72;75.77
75668;BME280;64266;48.798;44.756;2024-01-06T06:47:01;101334.44;;;3.03;76.28
75668;BME280;64266;48.798;44.756;2024-01-06T06:52:04;101328.50;;;2.75;74.12
75668;BME280;64266;48.798;44.756;2024-01-06T06:57:09;101341.81;;;2.82;74.77
75668;BME280;64266;48.798;44.756;2024-01-06T07:02:12;101363.41;;;3.01;73.83
75668;BME280;64266;48.798;44.756;2024-01-06T07:07:16;101349.03;;;2.80;75.88
75668;BME280;64266;48.798;44.756;2024-01-06T07:12:20;101377.31;;;2.76;74.71
75668;BME280;64266;48.798;44.756;2024-01-06T07:17:23;101410.13;;;2.88;73.03
75668;BME280;64266;48.798;44.756;2024-01-06T07:22:26;101427.66;;;2.88;74.47
75668;BME280;64266;48.798;44.756;2024-01-06T07:27:29;101436.47;;;2.87;73.24
75668;BME280;64266;48.798;44.756;2024-01-06T07:32:32;101432.19;;;2.68;74.50
75668;BME280;64266;48.798;44.756;2024-01-06T07:37:36;101448.75;;;2.68;75.28
75668;BME280;64266;48.798;44.756;2024-01-06T07:42:38;101447.91;;;2.68;75.71
75668;BME280;64266;48.798;44.756;2024-01-06T07:47:41;101441.78;;;2.59;75.31
75668;BME280;64266;48.798;44.756;2024-01-06T07:52:45;101438.78;;;2.54;74.29
75668;BME280;64266;48.798;44.756;2024-01-06T07:57:48;101456.22;;;2.63;73.77
75668;BME280;64266;48.798;44.756;2024-01-06T08:02:51;101479.13;;;2.61;72.86
75668;BME280;64266;48.798;44.756;2024-01-06T08:07:54;101474.19;;;2.58;73.52
75668;BME280;64266;48.798;44.756;2024-01-06T08:12:57;101478.34;;;2.34;71.59
75668;BME280;64266;48.798;44.756;2024-01-06T08:18:00;101488.09;;;2.32;72.74
75668;BME280;64266;48.798;44.756;2024-01-06T08:23:03;101492.25;;;2.25;71.30
75668;BME280;64266;48.798;44.756;2024-01-06T08:28:06;101522.44;;;2.46;72.53
75668;BME280;64266;48.798;44.756;2024-01-06T08:33:09;101492.91;;;2.36;71.38
75668;BME280;64266;48.798;44.756;2024-01-06T08:38:12;101505.91;;;2.18;69.08
75668;BME280;64266;48.798;44.756;2024-01-06T08:43:29;101495.63;;;2.17;72.58
75668;BME280;64266;48.798;44.756;2024-01-06T08:48:32;101511.03;;;2.20;70.45
75668;BME280;64266;48.798;44.756;2024-01-06T08:53:37;101518.66;;;2.31;71.59
75668;BME280;64266;48.798;44.756;2024-01-06T08:58:40;101491.00;;;2.01;69.82
75668;BME280;64266;48.798;44.756;2024-01-06T09:03:43;101515.00;;;1.97;66.60
75668;BME280;64266;48.798;44.756;2024-01-06T09:08:46;101532.59;;;1.95;68.71
75668;BME280;64266;48.798;44.756;2024-01-06T09:13:50;101559.84;;;2.02;68.45
75668;BME280;64266;48.798;44.756;2024-01-06T09:18:57;101525.75;;;1.84;69.04
75668;BME280;64266;48.798;44.756;2024-01-06T09:24:02;101560.94;;;2.09;69.19
75668;BME280;64266;48.798;44.756;2024-01-06T09:29:09;101564.22;;;2.11;69.43
75668;BME280;64266;48.798;44.756;2024-01-06T09:34:15;101583.75;;;2.16;69.56
75668;BME280;64266;48.798;44.756;2024-01-06T09:39:18;101539.47;;;1.96;68.58
75668;BME280;64266;48.798;44.756;2024-01-06T09:44:21;101566.16;;;2.09;68.89
75668;BME280;64266;48.798;44.756;2024-01-06T09:49:24;101576.13;;;1.86;69.34
75668;BME280;64266;48.798;44.756;2024-01-06T09:54:30;101609.63;;;2.10;67.48
75668;BME280;64266;48.798;44.756;2024-01-06T09:59:38;101602.63;;;2.01;68.22
75668;BME280;64266;48.798;44.756;2024-01-06T10:04:41;101630.72;;;2.08;67.30
75668;BME280;64266;48.798;44.756;2024-01-06T10:09:45;101633.63;;;1.96;66.23
75668;BME280;64266;48.798;44.756;2024-01-06T10:14:48;101600.50;;;1.68;65.73
75668;BME280;64266;48.798;44.756;2024-01-06T10:19:51;101601.44;;;1.67;65.41
75668;BME280;64266;48.798;44.756;2024-01-06T10:24:56;101611.50;;;1.71;65.38
75668;BME280;64266;48.798;44.756;2024-01-06T10:30:00;101636.38;;;1.94;65.26
75668;BME280;64266;48.798;44.756;2024-01-06T10:35:07;101634.88;;;1.92;65.83
75668;BME280;64266;48.798;44.756;2024-01-06T10:40:12;101655.66;;;2.03;66.61
75668;BME280;64266;48.798;44.756;2024-01-06T10:45:17;101659.22;;;2.02;66.49
75668;BME280;64266;48.798;44.756;2024-01-06T10:50:20;101645.31;;;2.01;67.63
75668;BME280;64266;48.798;44.756;2024-01-06T10:55:25;101678.22;;;2.13;65.72
75668;BME280;64266;48.798;44.756;2024-01-06T11:00:29;101696.69;;;2.02;64.94
75668;BME280;64266;48.798;44.756;2024-01-06T11:05:33;101695.97;;;1.91;65.04
75668;BME280;64266;48.798;44.756;2024-01-06T11:10:40;101711.81;;;1.99;65.91
75668;BME280;64266;48.798;44.756;2024-01-06T11:15:48;101696.28;;;1.69;65.28
75668;BME280;64266;48.798;44.756;2024-01-06T11:26:15;101749.00;;;1.93;65.43
75668;BME280;64266;48.798;44.756;2024-01-06T11:31:18;101763.44;;;1.87;63.69
75668;BME280;64266;48.798;44.756;2024-01-06T11:36:21;101744.56;;;1.74;63.36
75668;BME280;64266;48.798;44.756;2024-01-06T11:41:47;101778.56;;;1.74;63.83
75668;BME280;64266;48.798;44.756;2024-01-06T11:46:51;101766.13;;;1.67;62.38
75668;BME280;64266;48.798;44.756;2024-01-06T11:51:57;101758.53;;;1.54;62.76
75668;BME280;64266;48.798;44.756;2024-01-06T11:57:00;101776.84;;;1.54;62.36
75668;BME280;64266;48.798;44.756;2024-01-06T12:02:03;101779.47;;;1.44;62.36
75668;BME280;64266;48.798;44.756;2024-01-06T12:07:08;101781.47;;;1.31;62.32
75668;BME280;64266;48.798;44.756;2024-01-06T12:12:10;101796.16;;;1.23;62.07
75668;BME280;64266;48.798;44.756;2024-01-06T12:17:20;101803.75;;;1.05;63.25
75668;BME280;64266;48.798;44.756;2024-01-06T12:22:24;101842.28;;;1.13;61.55
75668;BME280;64266;48.798;44.756;2024-01-06T12:27:27;101762.34;;;0.49;62.85
75668;BME280;64266;48.798;44.756;2024-01-06T12:32:30;101881.31;;;1.04;62.15
75668;BME280;64266;48.798;44.756;2024-01-06T12:37:32;101868.69;;;0.89;63.47
75668;BME280;64266;48.798;44.756;2024-01-06T12:42:44;101896.75;;;1.17;64.96
75668;BME280;64266;48.798;44.756;2024-01-06T12:47:48;101863.91;;;0.94;64.32
75668;BME280;64266;48.798;44.756;2024-01-06T12:52:52;101903.06;;;1.15;63.70
75668;BME280;64266;48.798;44.756;2024-01-06T12:57:55;101867.09;;;0.97;65.18
75668;BME280;64266;48.798;44.756;2024-01-06T13:02:58;101865.75;;;0.82;63.57
75668;BME280;64266;48.798;44.756;2024-01-06T13:08:02;101918.16;;;1.11;64.63
75668;BME280;64266;48.798;44.756;2024-01-06T13:13:06;101896.31;;;0.91;64.14
75668;BME280;64266;48.798;44.756;2024-01-06T13:18:09;101909.69;;;0.98;64.15
75668;BME280;64266;48.798;44.756;2024-01-06T13:23:12;101909.13;;;0.94;64.36
75668;BME280;64266;48.798;44.756;2024-01-06T13:28:15;101920.06;;;1.09;65.64
75668;BME280;64266;48.798;44.756;2024-01-06T13:33:20;101922.19;;;0.94;65.13
75668;BME280;64266;48.798;44.756;2024-01-06T13:38:24;101910.25;;;0.81;62.42
75668;BME280;64266;48.798;44.756;2024-01-06T13:43:28;101946.94;;;0.79;62.91
75668;BME280;64266;48.798;44.756;2024-01-06T13:48:31;101914.00;;;0.67;64.25
75668;BME280;64266;48.798;44.756;2024-01-06T13:53:35;101957.41;;;0.68;62.07
75668;BME280;64266;48.798;44.756;2024-01-06T13:58:38;101971.09;;;0.61;62.50
75668;BME280;64266;48.798;44.756;2024-01-06T14:03:41;101979.66;;;0.40;61.32
75668;BME280;64266;48.798;44.756;2024-01-06T14:08:46;101989.88;;;0.32;60.62
75668;BME280;64266;48.798;44.756;2024-01-06T14:13:51;101992.97;;;0.26;62.04
75668;BME280;64266;48.798;44.756;2024-01-06T14:18:54;101985.00;;;0.28;61.44
75668;BME280;64266;48.798;44.756;2024-01-06T14:23:58;101919.84;;;-0.06;63.23
75668;BME280;64266;48.798;44.756;2024-01-06T14:29:03;102002.44;;;0.38;62.30
75668;BME280;64266;48.798;44.756;2024-01-06T14:34:06;102003.50;;;0.25;61.44
75668;BME280;64266;48.798;44.756;2024-01-06T14:39:10;102000.91;;;0.25;62.03
75668;BME280;64266;48.798;44.756;2024-01-06T14:44:13;102000.66;;;0.39;63.02
75668;BME280;64266;48.798;44.756;2024-01-06T14:49:20;101981.81;;;0.35;62.28
75668;BME280;64266;48.798;44.756;2024-01-06T14:54:23;101978.38;;;0.46;61.37
75668;BME280;64266;48.798;44.756;2024-01-06T14:59:26;101967.09;;;0.34;62.46
75668;BME280;64266;48.798;44.756;2024-01-06T15:04:30;101976.81;;;0.43;62.34
75668;BME280;64266;48.798;44.756;2024-01-06T15:09:33;101986.06;;;0.47;62.37
75668;BME280;64266;48.798;44.756;2024-01-06T15:14:36;101960.03;;;0.14;61.90
75668;BME280;64266;48.798;44.756;2024-01-06T15:19:44;101986.56;;;0.30;63.27
75668;BME280;64266;48.798;44.756;2024-01-06T15:24:47;101969.75;;;0.23;61.63
75668;BME280;64266;48.798;44.756;2024-01-06T15:29:59;102006.50;;;0.20;61.32
75668;BME280;64266;48.798;44.756;2024-01-06T15:35:11;102045.38;;;0.34;61.84
75668;BME280;64266;48.798;44.756;2024-01-06T15:40:16;102040.16;;;0.45;62.00
75668;BME280;64266;48.798;44.756;2024-01-06T15:45:20;102027.72;;;0.27;60.71
75668;BME280;64266;48.798;44.756;2024-01-06T15:50:25;102024.50;;;0.23;61.41
75668;BME280;64266;48.798;44.756;2024-01-06T15:55:29;102022.25;;;0.30;61.96
75668;BME280;64266;48.798;44.756;2024-01-06T16:00:32;102015.28;;;0.30;61.45
75668;BME280;64266;48.798;44.756;2024-01-06T16:05:38;102010.28;;;0.27;61.66
75668;BME280;64266;48.798;44.756;2024-01-06T16:10:42;102000.22;;;0.12;61.56
75668;BME280;64266;48.798;44.756;2024-01-06T16:15:45;102007.53;;;0.29;62.09
75668;BME280;64266;48.798;44.756;2024-01-06T16:20:48;102009.94;;;0.21;61.82
75668;BME280;64266;48.798;44.756;2024-01-06T16:25:52;101986.34;;;0.11;61.25
75668;BME280;64266;48.798;44.756;2024-01-06T16:30:54;101997.94;;;0.29;62.39
75668;BME280;64266;48.798;44.756;2024-01-06T16:35:58;101994.16;;;0.33;62.65
75668;BME280;64266;48.798;44.756;2024-01-06T16:41:02;102004.59;;;0.33;62.50
75668;BME280;64266;48.798;44.756;2024-01-06T16:46:05;102003.75;;;0.33;60.97
75668;BME280;64266;48.798;44.756;2024-01-06T16:51:08;102004.00;;;0.30;62.44
75668;BME280;64266;48.798;44.756;2024-01-06T16:56:11;101967.97;;;0.02;62.77
75668;BME280;64266;48.798;44.756;2024-01-06T17:01:15;101984.78;;;0.20;62.36
75668;BME280;64266;48.798;44.756;2024-01-06T17:06:18;102008.97;;;0.33;62.72
75668;BME280;64266;48.798;44.756;2024-01-06T17:11:22;101984.69;;;0.21;61.19
75668;BME280;64266;48.798;44.756;2024-01-06T17:16:25;101975.88;;;0.22;62.13
75668;BME280;64266;48.798;44.756;2024-01-06T17:21:29;102001.38;;;0.30;61.62
75668;BME280;64266;48.798;44.756;2024-01-06T17:26:31;102003.88;;;0.20;61.57
75668;BME280;64266;48.798;44.756;2024-01-06T17:31:34;101984.75;;;0.31;61.78
75668;BME280;64266;48.798;44.756;2024-01-06T17:36:39;101970.78;;;0.32;61.90
75668;BME280;64266;48.798;44.756;2024-01-06T17:41:42;101952.66;;;0.30;61.21
75668;BME280;64266;48.798;44.756;2024-01-06T17:46:58;101939.28;;;0.24;61.53
75668;BME280;64266;48.798;44.756;2024-01-06T17:52:03;101941.16;;;0.33;60.69
75668;BME280;64266;48.798;44.756;2024-01-06T17:57:06;101929.88;;;0.32;61.88
75668;BME280;64266;48.798;44.756;2024-01-06T18:02:09;101927.47;;;0.40;62.24
75668;BME280;64266;48.798;44.756;2024-01-06T18:07:12;101962.78;;;0.55;62.68
75668;BME280;64266;48.798;44.756;2024-01-06T18:12:16;101973.41;;;0.75;62.75
75668;BME280;64266;48.798;44.756;2024-01-06T18:17:21;101955.44;;;0.61;61.30
75668;BME280;64266;48.798;44.756;2024-01-06T18:22:24;101967.25;;;0.76;61.79
75668;BME280;64266;48.798;44.756;2024-01-06T18:27:26;101944.44;;;0.78;61.99
75668;BME280;64266;48.798;44.756;2024-01-06T18:32:29;101930.41;;;0.58;61.44
75668;BME280;64266;48.798;44.756;2024-01-06T18:37:33;101939.94;;;0.80;62.87
75668;BME280;64266;48.798;44.756;2024-01-06T18:42:36;101917.72;;;0.53;63.43
75668;BME280;64266;48.798;44.756;2024-01-06T18:47:39;101973.91;;;0.69;61.73
75668;BME280;64266;48.798;44.756;2024-01-06T18:52:45;101960.16;;;0.55;62.16
75668;BME280;64266;48.798;44.756;2024-01-06T18:57:50;102001.91;;;0.67;60.58
75668;BME280;64266;48.798;44.756;2024-01-06T19:02:54;102020.28;;;0.76;62.30
75668;BME280;64266;48.798;44.756;2024-01-06T19:07:57;102016.44;;;0.80;62.95
75668;BME280;64266;48.798;44.756;2024-01-06T19:13:00;101958.19;;;0.48;60.20
75668;BME280;64266;48.798;44.756;2024-01-06T19:18:04;101966.44;;;0.64;59.93
75668;BME280;64266;48.798;44.756;2024-01-06T19:23:07;101964.03;;;0.72;60.02
75668;BME280;64266;48.798;44.756;2024-01-06T19:28:11;101943.31;;;0.60;61.03
75668;BME280;64266;48.798;44.756;2024-01-06T19:33:15;101926.38;;;0.54;60.12
75668;BME280;64266;48.798;44.756;2024-01-06T19:38:18;101849.31;;;0.18;60.68
75668;BME280;64266;48.798;44.756;2024-01-06T19:43:21;101939.09;;;0.79;60.29
75668;BME280;64266;48.798;44.756;2024-01-06T19:48:25;101927.00;;;0.78;62.44
75668;BME280;64266;48.798;44.756;2024-01-06T19:53:28;101954.94;;;0.98;61.70
75668;BME280;64266;48.798;44.756;2024-01-06T19:58:31;101913.31;;;0.86;61.26
75668;BME280;64266;48.798;44.756;2024-01-06T20:03:35;101975.06;;;1.07;61.24
75668;BME280;64266;48.798;44.756;2024-01-06T20:08:39;101968.53;;;1.02;60.79
75668;BME280;64266;48.798;44.756;2024-01-06T20:13:42;101963.81;;;0.96;60.69
75668;BME280;64266;48.798;44.756;2024-01-06T20:18:46;101932.34;;;0.77;60.24
75668;BME280;64266;48.798;44.756;2024-01-06T20:23:50;101966.06;;;1.00;61.30
75668;BME280;64266;48.798;44.756;2024-01-06T20:28:52;101959.66;;;1.04;61.48
75668;BME280;64266;48.798;44.756;2024-01-06T20:33:56;101959.06;;;1.01;61.16
75668;BME280;64266;48.798;44.756;2024-01-06T20:39:00;101968.19;;;1.06;60.33
75668;BME280;64266;48.798;44.756;2024-01-06T20:44:07;101966.47;;;1.17;60.22
75668;BME280;64266;48.798;44.756;2024-01-06T20:49:13;101851.63;;;0.64;61.94
75668;BME280;64266;48.798;44.756;2024-01-06T20:54:16;101950.66;;;1.18;61.13
75668;BME280;64266;48.798;44.756;2024-01-06T20:59:20;101907.53;;;1.03;62.64
75668;BME280;64266;48.798;44.756;2024-01-06T21:04:22;101961.69;;;1.22;62.12
75668;BME280;64266;48.798;44.756;2024-01-06T21:09:27;101902.94;;;0.95;62.46
75668;BME280;64266;48.798;44.756;2024-01-06T21:14:30;101938.28;;;1.20;63.25
75668;BME280;64266;48.798;44.756;2024-01-06T21:19:33;101904.22;;;1.01;63.20
75668;BME280;64266;48.798;44.756;2024-01-06T21:24:36;101897.91;;;1.03;63.40
75668;BME280;64266;48.798;44.756;2024-01-06T21:29:39;101880.47;;;1.04;63.41
75668;BME280;64266;48.798;44.756;2024-01-06T21:34:42;101872.13;;;1.10;63.33
75668;BME280;64266;48.798;44.756;2024-01-06T21:39:46;101889.88;;;1.16;64.02
75668;BME280;64266;48.798;44.756;2024-01-06T21:44:51;101870.56;;;1.28;63.41
75668;BME280;64266;48.798;44.756;2024-01-06T21:49:57;101835.47;;;1.21;62.51
75668;BME280;64266;48.798;44.756;2024-01-06T21:55:01;101819.63;;;1.13;61.73
75668;BME280;64266;48.798;44.756;2024-01-06T22:00:07;101802.91;;;0.95;59.91
75668;BME280;64266;48.798;44.756;2024-01-06T22:05:15;101790.53;;;0.97;61.80
75668;BME280;64266;48.798;44.756;2024-01-06T22:10:18;101756.63;;;0.55;59.59
75668;BME280;64266;48.798;44.756;2024-01-06T22:15:22;101777.38;;;0.78;61.15
75668;BME280;64266;48.798;44.756;2024-01-06T22:20:26;101714.88;;;0.35;63.90
75668;BME280;64266;48.798;44.756;2024-01-06T22:25:31;101742.69;;;0.66;62.89
75668;BME280;64266;48.798;44.756;2024-01-06T22:30:33;101763.13;;;0.61;61.99
75668;BME280;64266;48.798;44.756;2024-01-06T22:35:37;101761.66;;;0.47;64.07
75668;BME280;64266;48.798;44.756;2024-01-06T22:40:40;101754.75;;;0.37;62.87
75668;BME280;64266;48.798;44.756;2024-01-06T22:45:43;101728.16;;;0.52;63.50
75668;BME280;64266;48.798;44.756;2024-01-06T22:50:47;101740.13;;;0.34;62.73
75668;BME280;64266;48.798;44.756;2024-01-06T22:55:50;101759.44;;;0.64;63.36
75668;BME280;64266;48.798;44.756;2024-01-06T23:00:52;101749.41;;;0.69;63.41
75668;BME280;64266;48.798;44.756;2024-01-06T23:06:00;101743.88;;;0.62;62.35
75668;BME280;64266;48.798;44.756;2024-01-06T23:11:03;101743.06;;;0.62;64.12
75668;BME280;64266;48.798;44.756;2024-01-06T23:16:11;101755.78;;;0.76;62.90
75668;BME280;64266;48.798;44.756;2024-01-06T23:21:15;101738.72;;;0.72;61.94
75668;BME280;64266;48.798;44.756;2024-01-06T23:26:19;101614.00;;;-0.06;62.73
75668;BME280;64266;48.798;44.756;2024-01-06T23:31:21;101674.50;;;0.60;62.45
75668;BME280;64266;48.798;44.756;2024-01-06T23:36:24;101699.22;;;0.55;62.38
75668;BME280;64266;48.798;44.756;2024-01-06T23:41:27;101672.69;;;0.50;61.45
75668;BME280;64266;48.798;44.756;2024-01-06T23:46:30;101644.41;;;0.25;63.98
75668;BME280;64266;48.798;44.756;2024-01-06T23:51:33;101657.88;;;0.51;63.85
75668;BME280;64266;48.798;44.756;2024-01-06T23:56:36;101647.22;;;0.64;62.18
